Time;durP1;ratioP1;P1;durP2;ratioP2;P2;SDS_P1;SDS_P2;PMS_P1;PMS_P2;Temp;Humidity;BMP_temperature;BMP_pressure;BME280_temperature;BME280_humidity;BME280_pressure;Samples;Min_cycle;Max_cycle;Signal;HPM_P1;HPM_P2
2022/10/06 00:00:16;;;;;;;;;;;;;;;10.93;75.47;102187.75;5035544;28;20054;-86
2022/10/06 00:02:41;;;;;;;;;;;;;;;10.93;75.53;102189.56;5038871;28;19995;-84
2022/10/06 00:05:07;;;;;;;;;;;;;;;10.91;75.63;102196.88;5017566;28;20325;-84
2022/10/06 00:07:33;;;;;;;;;;;;;;;10.89;75.68;102188.13;5032928;28;20039;-85
2022/10/06 00:09:58;;;;;;;;;;;;;;;10.80;76.00;102189.72;5027728;28;20034;-84
2022/10/06 00:12:23;;;;;;;;;;;;;;;10.70;76.43;102184.22;5033403;28;19920;-84
2022/10/06 00:14:50;;;;;;;;;;;;;;;10.76;76.21;102193.63;5034665;28;19929;-84
2022/10/06 00:17:17;;;;;;;;;;;;;;;10.61;76.14;102190.34;5034250;28;19986;-82
2022/10/06 00:19:43;;;;;;;;;;;;;;;10.58;75.86;102185.19;5030480;28;19928;-85
2022/10/06 00:22:09;;;;;;;;;;;;;;;10.62;75.42;102181.28;5036129;28;19925;-85
2022/10/06 00:24:34;;;;;;;;;;;;;;;10.71;74.73;102177.84;5029303;28;19936;-84
2022/10/06 00:27:01;;;;;;;;;;;;;;;10.71;74.39;102180.56;5032581;28;19921;-85
2022/10/06 00:29:26;;;;;;;;;;;;;;;10.76;73.94;102189.09;5040040;28;19929;-84
2022/10/06 00:31:52;;;;;;;;;;;;;;;10.71;73.76;102180.56;5038392;28;19931;-83
2022/10/06 00:34:17;;;;;;;;;;;;;;;10.78;73.38;102176.38;5036231;28;20687;-85
2022/10/06 00:36:43;;;;;;;;;;;;;;;10.77;73.03;102185.44;5041423;28;19929;-84
2022/10/06 00:39:08;;;;;;;;;;;;;;;10.61;73.01;102181.44;5044868;28;19928;-84
2022/10/06 00:41:34;;;;;;;;;;;;;;;10.70;72.40;102183.34;5046149;28;19920;-85
2022/10/06 00:43:59;;;;;;;;;;;;;;;10.65;72.42;102177.50;5046207;28;19925;-83
2022/10/06 00:46:27;;;;;;;;;;;;;;;10.66;72.07;102184.59;5046900;28;20295;-84
2022/10/06 00:49:19;;;;;;;;;;;;;;;10.49;72.44;102176.06;5036188;28;19920;-84
2022/10/06 00:51:47;;;;;;;;;;;;;;;10.54;72.58;102183.75;5029477;28;19929;-82
2022/10/06 00:54:13;;;;;;;;;;;;;;;10.57;72.30;102178.13;5033692;28;19929;-83
2022/10/06 00:56:39;;;;;;;;;;;;;;;10.63;72.04;102177.66;5029359;28;20584;-83
2022/10/06 00:59:07;;;;;;;;;;;;;;;10.64;72.02;102179.34;5036556;28;20029;-82
2022/10/06 01:01:33;;;;;;;;;;;;;;;10.55;72.57;102172.88;5028989;28;20005;-83
2022/10/06 01:03:59;;;;;;;;;;;;;;;10.52;72.94;102172.28;5025768;28;20002;-83
2022/10/06 01:06:24;;;;;;;;;;;;;;;10.50;73.07;102175.06;5034227;28;20363;-83
2022/10/06 01:08:52;;;;;;;;;;;;;;;10.34;73.70;102169.22;5032349;28;19967;-84
2022/10/06 01:11:17;;;;;;;;;;;;;;;10.45;73.41;102169.22;5031882;28;20257;-84
2022/10/06 01:13:43;;;;;;;;;;;;;;;10.38;73.72;102172.53;5032565;28;19940;-83
2022/10/06 01:16:18;;;;;;;;;;;;;;;10.40;73.53;102168.72;5049159;28;19950;-83
2022/10/06 01:18:43;;;;;;;;;;;;;;;10.49;73.09;102164.47;5026279;28;19920;-85
2022/10/06 01:21:10;;;;;;;;;;;;;;;10.33;73.83;102164.84;5027209;28;19982;-84
2022/10/06 01:23:37;;;;;;;;;;;;;;;10.39;73.54;102160.78;5026143;28;20068;-84
2022/10/06 01:26:03;;;;;;;;;;;;;;;10.26;74.18;102159.06;5033785;28;20443;-84
2022/10/06 01:28:29;;;;;;;;;;;;;;;10.33;73.92;102154.06;5016159;28;20203;-83
2022/10/06 01:30:55;;;;;;;;;;;;;;;10.33;73.83;102154.06;5024016;28;20438;-84
2022/10/06 01:33:21;;;;;;;;;;;;;;;10.33;73.88;102151.38;5027183;28;19976;-84
2022/10/06 01:35:47;;;;;;;;;;;;;;;10.33;73.63;102154.94;5017717;28;19921;-84
2022/10/06 01:38:12;;;;;;;;;;;;;;;10.37;73.55;102154.66;5026181;28;19928;-84
2022/10/06 01:40:38;;;;;;;;;;;;;;;10.35;73.67;102155.66;5047513;28;19928;-85
2022/10/06 01:43:03;;;;;;;;;;;;;;;10.31;73.84;102145.28;5034319;28;20053;-84
2022/10/06 01:45:29;;;;;;;;;;;;;;;10.26;74.10;102152.81;5035533;28;19929;-86
2022/10/06 01:47:54;;;;;;;;;;;;;;;10.25;74.24;102154.63;5032766;28;19925;-84
2022/10/06 01:50:21;;;;;;;;;;;;;;;10.21;74.30;102150.50;5030662;28;19924;-85
2022/10/06 01:52:46;;;;;;;;;;;;;;;10.21;74.15;102150.50;5058821;28;19920;-84
2022/10/06 01:55:13;;;;;;;;;;;;;;;10.19;74.19;102149.75;5042589;28;19927;-85
2022/10/06 01:57:39;;;;;;;;;;;;;;;10.29;73.71;102148.06;5032862;28;19932;-86
2022/10/06 02:00:07;;;;;;;;;;;;;;;10.27;73.62;102143.78;5044801;28;19928;-85
2022/10/06 02:02:33;;;;;;;;;;;;;;;10.10;73.91;102147.81;5045144;28;19921;-86
2022/10/06 02:04:58;;;;;;;;;;;;;;;10.13;73.58;102144.88;5049442;28;20067;-85
2022/10/06 02:07:25;;;;;;;;;;;;;;;10.02;73.79;102136.78;5055566;28;20433;-86
2022/10/06 02:09:51;;;;;;;;;;;;;;;10.01;73.79;102137.78;5033749;28;20704;-84
2022/10/06 02:12:17;;;;;;;;;;;;;;;9.77;74.18;102144.09;5033012;28;20142;-86
2022/10/06 02:14:42;;;;;;;;;;;;;;;9.80;73.96;102138.50;5026188;28;20034;-84
2022/10/06 02:17:08;;;;;;;;;;;;;;;9.89;73.84;102135.09;5034313;28;19925;-85
2022/10/06 02:19:34;;;;;;;;;;;;;;;9.82;74.28;102136.53;5025780;28;20277;-85
2022/10/06 02:21:59;;;;;;;;;;;;;;;9.77;74.77;102130.69;5033524;28;19920;-86
2022/10/06 02:24:27;;;;;;;;;;;;;;;9.74;75.28;102130.94;5051602;28;21804;-85
2022/10/06 02:26:52;;;;;;;;;;;;;;;9.67;75.72;102132.38;5036534;28;19920;-86
2022/10/06 02:29:20;;;;;;;;;;;;;;;9.65;76.03;102126.28;5031881;28;21061;-87
2022/10/06 02:31:46;;;;;;;;;;;;;;;9.61;76.39;102122.09;5031000;28;20034;-84
2022/10/06 02:34:11;;;;;;;;;;;;;;;9.65;76.57;102128.97;5033707;28;20048;-86
2022/10/06 02:36:37;;;;;;;;;;;;;;;9.66;76.78;102123.44;5034408;28;20360;-84
2022/10/06 02:39:02;;;;;;;;;;;;;;;9.54;77.82;102121.72;5034709;28;19940;-85
2022/10/06 02:41:29;;;;;;;;;;;;;;;9.58;77.79;102119.66;5025701;28;19921;-86
2022/10/06 02:43:55;;;;;;;;;;;;;;;9.63;77.66;102122.84;5034607;28;19929;-85
2022/10/06 02:46:21;;;;;;;;;;;;;;;9.69;77.41;102119.66;5030802;28;19964;-85
2022/10/06 02:48:47;;;;;;;;;;;;;;;9.65;77.39;102128.97;5033016;28;19936;-83
2022/10/06 02:51:14;;;;;;;;;;;;;;;9.76;76.78;102122.72;5032653;28;19933;-84
2022/10/06 02:53:40;;;;;;;;;;;;;;;9.72;76.32;102119.44;5030904;28;19948;-85
2022/10/06 02:56:09;;;;;;;;;;;;;;;9.77;75.99;102125.31;5031155;28;19932;-85
2022/10/06 02:58:35;;;;;;;;;;;;;;;9.70;76.09;102118.72;5032069;28;20058;-85
2022/10/06 03:01:01;;;;;;;;;;;;;;;9.61;76.54;102124.78;5029249;28;20018;-85
2022/10/06 03:03:27;;;;;;;;;;;;;;;9.54;76.96;102120.88;5030651;28;19968;-85
2022/10/06 03:06:02;;;;;;;;;;;;;;;9.56;76.79;102116.25;5029683;28;19984;-84
2022/10/06 03:08:29;;;;;;;;;;;;;;;9.51;76.86;102114.75;5032869;28;19951;-87
2022/10/06 03:10:58;;;;;;;;;;;;;;;9.65;76.56;102118.22;5031845;28;20022;-86
2022/10/06 03:13:24;;;;;;;;;;;;;;;9.68;76.63;102126.03;5031635;28;19960;-86
2022/10/06 03:15:49;;;;;;;;;;;;;;;9.57;77.31;102126.84;5032959;28;20444;-85
2022/10/06 03:18:16;;;;;;;;;;;;;;;9.54;77.63;102120.88;5026539;28;20014;-85
2022/10/06 03:20:41;;;;;;;;;;;;;;;9.55;77.52;102126.09;5032542;28;19925;-84
2022/10/06 03:23:07;;;;;;;;;;;;;;;9.65;77.06;102131.66;5030523;28;20529;-86
2022/10/06 03:25:36;;;;;;;;;;;;;;;9.71;76.82;102133.84;5032213;28;20041;-87
2022/10/06 03:28:01;;;;;;;;;;;;;;;9.78;76.30;102137.75;5040987;28;19978;-87
2022/10/06 03:30:26;;;;;;;;;;;;;;;9.81;76.22;102137.53;5039967;28;20500;-84
2022/10/06 03:32:52;;;;;;;;;;;;;;;9.80;76.20;102135.81;5033682;28;20392;-87
2022/10/06 03:35:18;;;;;;;;;;;;;;;9.70;76.25;102137.50;5031480;28;20007;-86
2022/10/06 03:37:45;;;;;;;;;;;;;;;9.65;76.34;102137.00;5031624;28;19928;-87
2022/10/06 03:40:10;;;;;;;;;;;;;;;9.55;76.42;102126.09;5032810;28;20352;-87
2022/10/06 03:42:36;;;;;;;;;;;;;;;9.50;76.29;102129.16;5034425;28;19920;-83
2022/10/06 03:45:01;;;;;;;;;;;;;;;9.49;76.23;102130.13;5033706;28;19984;-86
2022/10/06 03:47:30;;;;;;;;;;;;;;;9.40;76.66;102130.84;5033658;28;20024;-85
2022/10/06 03:49:56;;;;;;;;;;;;;;;9.35;76.92;102135.69;5037989;28;20015;-84
2022/10/06 03:52:22;;;;;;;;;;;;;;;9.41;76.90;102134.38;5033939;28;20376;-84
2022/10/06 03:54:47;;;;;;;;;;;;;;;9.37;76.90;102132.91;5040406;28;19948;-84
2022/10/06 03:57:13;;;;;;;;;;;;;;;9.34;77.17;102139.38;5054790;28;20020;-84
2022/10/06 03:59:40;;;;;;;;;;;;;;;9.35;77.25;102135.69;5040369;28;19954;-86
2022/10/06 04:02:05;;;;;;;;;;;;;;;9.45;77.01;102133.16;5044185;28;19932;-85
2022/10/06 04:04:31;;;;;;;;;;;;;;;9.46;76.99;102127.69;5049182;28;19927;-84
2022/10/06 04:06:56;;;;;;;;;;;;;;;9.47;77.11;102140.13;5047252;28;19959;-82
2022/10/06 04:09:22;;;;;;;;;;;;;;;9.49;76.62;102138.19;5051952;28;19924;-83
2022/10/06 04:11:47;;;;;;;;;;;;;;;9.55;75.94;102142.22;5049407;28;19921;-84
2022/10/06 04:14:14;;;;;;;;;;;;;;;9.58;75.58;102141.16;5034790;28;20364;-85
2022/10/06 04:16:40;;;;;;;;;;;;;;;9.62;75.22;102138.13;5034447;28;20020;-83
2022/10/06 04:19:08;;;;;;;;;;;;;;;9.62;74.70;102142.59;5032656;28;19931;-84
2022/10/06 04:21:36;;;;;;;;;;;;;;;9.60;74.37;102136.50;5035271;28;19990;-83
2022/10/06 04:24:02;;;;;;;;;;;;;;;9.56;74.15;102132.34;5034075;28;19956;-84
2022/10/06 04:26:31;;;;;;;;;;;;;;;9.52;73.71;102132.56;5034639;28;20135;-84
2022/10/06 04:28:56;;;;;;;;;;;;;;;9.40;73.93;102141.56;5027455;28;19929;-84
2022/10/06 04:31:23;;;;;;;;;;;;;;;9.34;73.84;102142.06;5032232;28;19971;-83
2022/10/06 04:33:54;;;;;;;;;;;;;;;9.33;73.98;102142.16;5034047;28;20011;-82
2022/10/06 04:36:23;;;;;;;;;;;;;;;9.44;73.57;102143.06;5050666;28;19936;-83
2022/10/06 04:38:49;;;;;;;;;;;;;;;9.28;73.80;102142.50;5038962;28;20043;-83
2022/10/06 04:41:15;;;;;;;;;;;;;;;9.48;73.29;102157.09;5029737;28;21766;-85
2022/10/06 04:43:40;;;;;;;;;;;;;;;9.51;73.09;102151.50;5033994;28;19925;-84
2022/10/06 04:46:05;;;;;;;;;;;;;;;9.59;72.71;102148.22;5044266;28;20573;-83
2022/10/06 04:48:34;;;;;;;;;;;;;;;9.61;72.73;102151.66;5042869;28;19925;-83
2022/10/06 04:51:03;;;;;;;;;;;;;;;9.60;72.16;102156.16;5035900;28;20789;-84
2022/10/06 04:53:28;;;;;;;;;;;;;;;9.57;72.14;102151.00;5027354;28;19978;-85
2022/10/06 04:56:01;;;;;;;;;;;;;;;9.71;71.53;102158.84;5028063;28;19933;-85
2022/10/06 04:58:28;;;;;;;;;;;;;;;9.77;71.14;102152.16;5033537;28;19928;-84
2022/10/06 05:00:54;;;;;;;;;;;;;;;9.80;71.01;102153.75;5038173;28;20464;-84
2022/10/06 05:03:19;;;;;;;;;;;;;;;9.73;70.96;102156.06;5048254;28;20011;-84
2022/10/06 05:05:45;;;;;;;;;;;;;;;9.79;70.22;102158.28;5048054;28;19923;-84
2022/10/06 05:08:10;;;;;;;;;;;;;;;9.77;70.26;102154.84;5048940;28;19921;-83
2022/10/06 05:10:35;;;;;;;;;;;;;;;9.75;70.37;102158.63;5049686;28;19917;-83
2022/10/06 05:13:04;;;;;;;;;;;;;;;9.80;69.95;102153.75;5044764;28;20366;-83
2022/10/06 05:15:30;;;;;;;;;;;;;;;9.87;69.95;102153.16;5033851;28;20942;-82
2022/10/06 05:17:55;;;;;;;;;;;;;;;9.94;69.80;102165.13;5027270;28;19929;-82
2022/10/06 05:20:21;;;;;;;;;;;;;;;10.00;69.62;102163.81;5029462;28;19929;-84
2022/10/06 05:22:47;;;;;;;;;;;;;;;9.92;69.62;102164.38;5034693;28;20423;-84
2022/10/06 05:25:12;;;;;;;;;;;;;;;10.04;69.37;102161.72;5031491;28;19921;-83
2022/10/06 05:27:38;;;;;;;;;;;;;;;10.11;69.04;102160.25;5025958;28;20376;-84
2022/10/06 05:30:05;;;;;;;;;;;;;;;10.13;69.22;102158.31;5048466;28;19925;-84
2022/10/06 05:32:30;;;;;;;;;;;;;;;10.18;69.49;102163.31;5015373;28;19932;-84
2022/10/06 05:34:55;;;;;;;;;;;;;;;10.43;69.78;102164.94;5033017;28;21722;-83
2022/10/06 05:37:21;;;;;;;;;;;;;;;11.04;67.32;102161.75;5024607;28;19929;-84
2022/10/06 05:39:47;;;;;;;;;;;;;;;12.49;63.48;102163.72;5033747;28;19925;-84
2022/10/06 05:42:12;;;;;;;;;;;;;;;13.79;60.30;102158.97;5011227;28;20031;-83
2022/10/06 05:44:38;;;;;;;;;;;;;;;14.70;56.32;102156.50;5026617;28;19963;-84
2022/10/06 05:47:03;;;;;;;;;;;;;;;15.53;54.15;102157.16;5015488;28;19921;-85
2022/10/06 05:49:28;;;;;;;;;;;;;;;16.26;51.45;102158.69;5041989;28;19921;-83
2022/10/06 05:51:55;;;;;;;;;;;;;;;17.01;49.86;102158.78;5040586;28;19931;-85
2022/10/06 05:54:20;;;;;;;;;;;;;;;17.53;48.69;102152.22;5034270;28;19921;-82
2022/10/06 05:56:46;;;;;;;;;;;;;;;17.83;47.07;102161.56;5032490;28;19932;-85
2022/10/06 05:59:11;;;;;;;;;;;;;;;18.06;46.64;102158.13;5033608;28;19998;-82
2022/10/06 06:01:40;;;;;;;;;;;;;;;18.26;46.18;102156.72;5040479;28;19928;-84
2022/10/06 06:04:07;;;;;;;;;;;;;;;18.39;45.46;102156.13;5037655;28;19921;-80
2022/10/06 06:06:33;;;;;;;;;;;;;;;18.31;44.87;102159.75;5036918;28;20001;-82
2022/10/06 06:08:59;;;;;;;;;;;;;;;18.43;45.15;102164.81;5041559;28;20000;-84
2022/10/06 06:11:26;;;;;;;;;;;;;;;18.79;44.65;102154.28;5039581;28;19925;-85
2022/10/06 06:13:53;;;;;;;;;;;;;;;18.95;43.39;102158.78;5045908;28;19928;-85
2022/10/06 06:16:18;;;;;;;;;;;;;;;19.09;43.37;102166.19;5047297;28;19993;-87
2022/10/06 06:18:43;;;;;;;;;;;;;;;19.15;43.04;102162.75;5056632;28;19987;-86
2022/10/06 06:21:09;;;;;;;;;;;;;;;19.05;43.26;102162.13;5044283;28;19931;-86
2022/10/06 06:23:36;;;;;;;;;;;;;;;19.10;43.08;102165.16;5043302;28;19920;-85
2022/10/06 06:26:06;;;;;;;;;;;;;;;19.53;42.86;102164.66;5043792;28;19928;-85
2022/10/06 06:28:31;;;;;;;;;;;;;;;19.90;42.12;102169.31;5051150;28;20004;-88
2022/10/06 06:31:01;;;;;;;;;;;;;;;20.31;41.25;102166.09;5045467;28;20092;-84
2022/10/06 06:33:26;;;;;;;;;;;;;;;20.58;40.81;102150.94;5049176;28;19921;-86
2022/10/06 06:35:52;;;;;;;;;;;;;;;20.90;40.35;102156.16;5044500;28;19920;-84
2022/10/06 06:38:19;;;;;;;;;;;;;;;21.16;40.21;102153.69;5048977;28;20094;-85
2022/10/06 06:40:45;;;;;;;;;;;;;;;21.38;38.94;102150.97;5048888;28;19974;-85
2022/10/06 06:43:11;;;;;;;;;;;;;;;21.68;38.44;102152.50;5032384;28;19920;-85
2022/10/06 06:45:37;;;;;;;;;;;;;;;21.92;37.56;102159.41;5042208;28;19924;-88
2022/10/06 06:48:04;;;;;;;;;;;;;;;22.25;37.38;102157.97;5053615;28;20342;-85
2022/10/06 06:50:30;;;;;;;;;;;;;;;22.43;37.05;102160.16;5039340;28;19939;-87
2022/10/06 06:52:55;;;;;;;;;;;;;;;22.86;36.27;102159.91;5045353;28;19921;-87
2022/10/06 06:55:22;;;;;;;;;;;;;;;23.23;35.57;102161.31;5044423;28;19974;-88
2022/10/06 06:57:48;;;;;;;;;;;;;;;23.37;35.11;102160.25;5047567;28;19921;-87
2022/10/06 07:00:15;;;;;;;;;;;;;;;23.68;34.48;102168.94;5047995;28;19921;-89
2022/10/06 07:02:40;;;;;;;;;;;;;;;23.63;34.16;102161.31;5049187;28;20003;-88
2022/10/06 07:05:06;;;;;;;;;;;;;;;23.93;33.41;102161.75;5052665;28;20055;-86
2022/10/06 07:07:31;;;;;;;;;;;;;;;24.42;32.60;102154.03;5052241;28;20246;-87
2022/10/06 07:09:56;;;;;;;;;;;;;;;24.57;31.70;102160.09;5053666;28;19928;-86
2022/10/06 07:12:24;;;;;;;;;;;;;;;25.03;31.54;102153.53;5051502;28;20419;-87
2022/10/06 07:25:45;;;;;;;;;;;;;;;26.86;28.05;102136.69;5054285;28;20402;-85
2022/10/06 07:28:11;;;;;;;;;;;;;;;27.23;27.83;102142.97;5050941;28;20381;-85
2022/10/06 07:30:36;;;;;;;;;;;;;;;27.96;27.05;102144.47;5058060;28;19924;-83
2022/10/06 07:33:03;;;;;;;;;;;;;;;28.34;26.99;102140.31;5069583;28;19924;-86
2022/10/06 07:35:30;;;;;;;;;;;;;;;28.41;26.48;102138.25;5071257;28;20415;-86
2022/10/06 07:38:01;;;;;;;;;;;;;;;29.52;25.49;102137.00;5054563;28;19921;-86
2022/10/06 07:40:26;;;;;;;;;;;;;;;30.37;24.28;102132.16;5049962;28;19925;-85
2022/10/06 07:42:53;;;;;;;;;;;;;;;31.16;23.05;102138.28;5049386;28;19921;-85
2022/10/06 07:48:05;;;;;;;;;;;;;;;33.61;20.20;102127.38;5049692;28;19972;-85
2022/10/06 07:50:30;;;;;;;;;;;;;;;33.33;20.32;102131.56;5055120;28;20284;-85
2022/10/06 07:52:56;;;;;;;;;;;;;;;34.24;18.79;102124.16;5053073;28;19921;-87
2022/10/06 07:55:21;;;;;;;;;;;;;;;34.85;18.92;102128.59;5053764;28;20361;-86
2022/10/06 07:57:49;;;;;;;;;;;;;;;35.15;18.44;102129.50;5054806;28;20109;-84
2022/10/06 08:00:15;;;;;;;;;;;;;;;35.73;17.54;102126.75;5052055;28;20355;-88
2022/10/06 08:02:40;;;;;;;;;;;;;;;36.74;16.47;102129.41;5052048;28;20488;-85
2022/10/06 08:05:07;;;;;;;;;;;;;;;37.18;16.22;102128.19;5051564;28;19923;-84
2022/10/06 08:07:32;;;;;;;;;;;;;;;37.56;15.58;102128.09;5052092;28;20023;-85
2022/10/06 08:09:58;;;;;;;;;;;;;;;37.66;15.23;102123.41;5053244;28;19917;-85
2022/10/06 08:12:32;;;;;;;;;;;;;;;38.75;14.47;102118.00;5051933;28;19921;-84
2022/10/06 08:15:00;;;;;;;;;;;;;;;39.34;13.89;102106.72;5051807;28;19917;-86
2022/10/06 08:17:26;;;;;;;;;;;;;;;39.35;13.41;102119.63;5052997;28;20004;-85
2022/10/06 08:19:53;;;;;;;;;;;;;;;39.58;13.31;102107.19;5034873;28;19959;-85
2022/10/06 08:22:26;;;;;;;;;;;;;;;40.03;13.51;102112.69;5052692;28;19921;-88
2022/10/06 08:24:53;;;;;;;;;;;;;;;40.29;12.76;102103.50;5051861;28;19925;-86
2022/10/06 08:27:19;;;;;;;;;;;;;;;40.67;12.26;102098.06;5051756;28;19925;-84
2022/10/06 08:29:44;;;;;;;;;;;;;;;40.35;11.87;102096.53;5051038;28;19917;-86
2022/10/06 08:32:10;;;;;;;;;;;;;;;40.83;11.61;102095.56;5050160;28;19925;-86
2022/10/06 08:34:35;;;;;;;;;;;;;;;41.02;11.14;102094.38;5051443;28;20404;-85
2022/10/06 08:37:02;;;;;;;;;;;;;;;40.72;10.89;102083.00;5029632;28;19948;-86
2022/10/06 08:39:29;;;;;;;;;;;;;;;40.96;10.73;102092.91;5051712;28;19979;-87
2022/10/06 08:41:55;;;;;;;;;;;;;;;41.75;10.45;102100.00;5046667;28;19944;-87
2022/10/06 08:44:23;;;;;;;;;;;;;;;42.66;9.80;102088.28;5034053;28;20384;-88
2022/10/06 08:46:54;;;;;;;;;;;;;;;42.05;9.84;102078.25;5053671;28;19928;-89
2022/10/06 08:49:21;;;;;;;;;;;;;;;41.83;10.07;102092.66;5065949;28;20376;-87
2022/10/06 08:52:04;;;;;;;;;;;;;;;41.21;10.65;102083.59;5049231;28;19917;-87
2022/10/06 08:54:51;;;;;;;;;;;;;;;39.54;11.33;102082.84;5051586;28;19924;-85
2022/10/06 08:57:20;;;;;;;;;;;;;;;38.05;12.70;102080.84;5052086;28;19921;-88
2022/10/06 08:59:47;;;;;;;;;;;;;;;36.77;13.36;102080.34;5049284;28;19920;-85
2022/10/06 09:02:37;;;;;;;;;;;;;;;38.25;12.60;102081.50;5050887;28;20460;-86
2022/10/06 09:05:03;;;;;;;;;;;;;;;39.71;11.93;102076.44;5049354;28;19947;-87
2022/10/06 09:07:28;;;;;;;;;;;;;;;39.66;11.80;102072.66;5046313;28;19925;-86
2022/10/06 09:09:57;;;;;;;;;;;;;;;40.53;10.94;102068.38;5049156;28;19967;-88
2022/10/06 09:12:23;;;;;;;;;;;;;;;40.06;11.20;102081.06;5042929;28;19917;-91
2022/10/06 09:14:53;;;;;;;;;;;;;;;39.92;11.10;102083.16;5053531;28;19921;-90
2022/10/06 09:17:23;;;;;;;;;;;;;;;38.91;12.19;102084.75;5052145;28;19959;-92
2022/10/06 09:19:51;;;;;;;;;;;;;;;39.15;11.73;102088.09;5034782;28;20036;-92
2022/10/06 09:22:18;;;;;;;;;;;;;;;38.38;12.87;102083.47;5059027;28;19982;-89
2022/10/06 09:24:48;;;;;;;;;;;;;;;37.73;13.23;102084.56;5051124;28;19982;-92
2022/10/06 09:27:15;;;;;;;;;;;;;;;38.67;12.55;102088.69;5041185;28;19921;-90
2022/10/06 09:29:41;;;;;;;;;;;;;;;38.08;12.51;102079.38;5058229;28;19921;-90
2022/10/06 09:32:09;;;;;;;;;;;;;;;38.16;12.38;102087.88;5054886;28;19952;-90
2022/10/06 09:34:39;;;;;;;;;;;;;;;39.02;12.07;102083.38;5051364;28;19975;-88
2022/10/06 09:37:09;;;;;;;;;;;;;;;39.72;11.25;102080.94;5037990;28;19943;-89
2022/10/06 09:39:38;;;;;;;;;;;;;;;40.27;11.01;102077.63;5049644;28;20369;-91
2022/10/06 09:42:07;;;;;;;;;;;;;;;38.81;11.66;102077.41;5035536;28;20015;-91
2022/10/06 09:44:43;;;;;;;;;;;;;;;38.41;12.03;102068.78;5054134;28;20003;-89
2022/10/06 09:47:25;;;;;;;;;;;;;;;39.17;11.78;102074.53;5054615;28;20003;-87
2022/10/06 09:50:10;;;;;;;;;;;;;;;38.07;12.43;102072.06;5052450;28;19967;-88
2022/10/06 09:52:36;;;;;;;;;;;;;;;38.71;12.12;102072.88;5050865;28;20003;-88
2022/10/06 09:55:11;;;;;;;;;;;;;;;37.16;13.12;102068.78;5050221;28;19963;-87
2022/10/06 09:57:37;;;;;;;;;;;;;;;38.10;12.95;102074.28;5050591;28;19921;-90
2022/10/06 10:00:03;;;;;;;;;;;;;;;37.31;13.46;102069.63;5053018;28;19917;-88
2022/10/06 10:02:30;;;;;;;;;;;;;;;37.25;14.57;102068.88;5051528;28;19952;-88
2022/10/06 10:04:55;;;;;;;;;;;;;;;37.57;14.35;102062.41;5052691;28;19924;-87
2022/10/06 10:07:24;;;;;;;;;;;;;;;38.09;13.41;102058.56;5059697;28;19921;-88
2022/10/06 10:09:53;;;;;;;;;;;;;;;38.75;13.26;102059.00;5029793;28;19965;-89
2022/10/06 10:12:23;;;;;;;;;;;;;;;37.48;13.58;102058.63;5052448;28;19916;-87
2022/10/06 10:14:48;;;;;;;;;;;;;;;36.60;14.39;102060.44;5050068;28;20030;-89
2022/10/06 10:17:16;;;;;;;;;;;;;;;36.53;14.62;102061.63;5050653;28;19935;-88
2022/10/06 10:19:42;;;;;;;;;;;;;;;35.97;15.15;102055.97;5054843;28;20020;-88
2022/10/06 10:22:17;;;;;;;;;;;;;;;37.76;14.15;102048.28;5053833;28;20312;-88
2022/10/06 10:25:01;;;;;;;;;;;;;;;35.41;15.32;102054.63;5054520;28;19928;-87
2022/10/06 10:27:32;;;;;;;;;;;;;;;36.26;15.02;102051.09;5054924;28;19927;-89
2022/10/06 10:30:00;;;;;;;;;;;;;;;36.02;15.26;102050.28;5051571;28;19952;-87
2022/10/06 10:32:37;;;;;;;;;;;;;;;34.89;15.99;102052.28;5069312;28;19939;-88
2022/10/06 10:35:22;;;;;;;;;;;;;;;36.27;15.31;102052.78;5067262;28;19916;-88
2022/10/06 10:37:59;;;;;;;;;;;;;;;34.71;15.84;102043.78;5060930;28;20007;-87
2022/10/06 10:40:25;;;;;;;;;;;;;;;34.10;16.54;102051.38;5055826;28;19944;-89
2022/10/06 10:42:55;;;;;;;;;;;;;;;35.71;15.35;102047.88;5055567;28;20381;-89
2022/10/06 10:45:24;;;;;;;;;;;;;;;35.71;15.79;102045.91;5054358;28;19928;-87
2022/10/06 10:47:49;;;;;;;;;;;;;;;36.26;14.85;102039.06;5054782;28;19956;-89
2022/10/06 10:50:20;;;;;;;;;;;;;;;34.97;15.84;102031.25;5056325;28;19955;-88
2022/10/06 10:52:47;;;;;;;;;;;;;;;33.32;16.79;102033.19;5054923;28;19917;-90
2022/10/06 10:55:22;;;;;;;;;;;;;;;34.50;16.09;102027.13;5056095;28;19924;-89
2022/10/06 10:57:47;;;;;;;;;;;;;;;35.12;15.20;102029.47;5054995;28;20027;-89
2022/10/06 11:00:19;;;;;;;;;;;;;;;35.14;15.17;102018.84;5056156;28;19960;-89
2022/10/06 11:02:45;;;;;;;;;;;;;;;35.09;15.25;102005.72;5054946;28;20004;-88
2022/10/06 11:05:49;;;;;;;;;;;;;;;34.03;15.69;102008.97;5053745;28;19921;-88
2022/10/06 11:08:43;;;;;;;;;;;;;;;32.95;15.84;102005.63;5031797;28;19921;-90
2022/10/06 11:11:14;;;;;;;;;;;;;;;33.62;16.49;101993.28;5006532;28;20019;-88
2022/10/06 11:13:41;;;;;;;;;;;;;;;32.12;17.12;101993.56;5044834;28;19920;-88
2022/10/06 11:16:23;;;;;;;;;;;;;;;32.34;17.06;101996.09;5063220;28;19917;-89
2022/10/06 11:18:48;;;;;;;;;;;;;;;32.67;16.73;101982.81;5058825;28;19970;-90
2022/10/06 11:21:15;;;;;;;;;;;;;;;33.60;15.87;101986.31;5055859;28;19920;-88
2022/10/06 11:24:16;;;;;;;;;;;;;;;33.36;16.87;101986.91;5053641;28;19921;-89
2022/10/06 11:26:47;;;;;;;;;;;;;;;32.55;16.73;101983.06;4993657;28;19984;-88
2022/10/06 11:29:31;;;;;;;;;;;;;;;32.35;17.17;101983.00;5047669;28;19948;-89
2022/10/06 11:32:26;;;;;;;;;;;;;;;32.81;16.49;101980.28;5061224;28;19917;-87
2022/10/06 11:34:51;;;;;;;;;;;;;;;31.73;18.21;101977.25;5059827;28;19932;-88
2022/10/06 11:37:19;;;;;;;;;;;;;;;31.98;17.65;101977.66;5058477;28;19972;-89
2022/10/06 11:39:45;;;;;;;;;;;;;;;31.96;17.08;101975.16;5056688;28;19921;-88
2022/10/06 11:42:10;;;;;;;;;;;;;;;31.15;18.60;101976.38;5056115;28;19920;-88
2022/10/06 11:44:36;;;;;;;;;;;;;;;30.60;18.82;101972.00;5054817;28;19952;-89
2022/10/06 11:47:06;;;;;;;;;;;;;;;28.79;21.02;101967.16;5055991;28;19913;-90
2022/10/06 11:49:38;;;;;;;;;;;;;;;27.98;21.25;101961.81;5054331;28;19909;-87
2022/10/06 11:52:06;;;;;;;;;;;;;;;27.74;21.70;101961.84;5055203;28;20285;-89
2022/10/06 11:54:34;;;;;;;;;;;;;;;27.15;22.88;101966.59;5055629;28;19923;-88
2022/10/06 11:56:59;;;;;;;;;;;;;;;26.60;23.65;101956.72;5054041;28;19916;-90
2022/10/06 11:59:25;;;;;;;;;;;;;;;26.55;23.45;101964.88;5055919;28;19947;-87
2022/10/06 12:01:51;;;;;;;;;;;;;;;26.58;22.95;101958.03;5056944;28;20015;-87
2022/10/06 12:04:16;;;;;;;;;;;;;;;25.59;24.46;101966.50;5054443;28;19971;-89
2022/10/06 12:06:42;;;;;;;;;;;;;;;25.74;25.03;101955.13;5032591;28;19913;-88
2022/10/06 12:09:23;;;;;;;;;;;;;;;25.46;25.75;101962.84;5050393;28;19983;-88
2022/10/06 12:11:49;;;;;;;;;;;;;;;25.24;26.16;101961.63;5054542;28;20038;-90
2022/10/06 12:14:33;;;;;;;;;;;;;;;25.04;27.03;101959.84;5055374;28;19920;-88
2022/10/06 12:17:02;;;;;;;;;;;;;;;24.04;29.30;101962.47;5053246;28;19971;-88
2022/10/06 12:19:48;;;;;;;;;;;;;;;23.45;31.17;101966.25;5052942;28;20385;-90
2022/10/06 12:22:16;;;;;;;;;;;;;;;22.87;31.10;101967.75;5043035;28;19917;-86
2022/10/06 12:24:43;;;;;;;;;;;;;;;22.84;31.59;101965.44;5053891;28;19912;-87
2022/10/06 12:27:15;;;;;;;;;;;;;;;22.64;31.90;101964.59;5052548;28;19994;-87
2022/10/06 12:29:47;;;;;;;;;;;;;;;22.57;32.37;101958.25;5052358;28;19922;-88
2022/10/06 12:32:28;;;;;;;;;;;;;;;23.03;32.78;101968.44;5053908;28;19905;-88
2022/10/06 12:34:59;;;;;;;;;;;;;;;23.22;31.04;101959.31;5047265;28;20282;-88
2022/10/06 12:37:28;;;;;;;;;;;;;;;23.28;29.95;101961.22;5055275;28;19917;-87
2022/10/06 12:40:11;;;;;;;;;;;;;;;23.11;29.10;101966.31;5051486;28;19924;-88
2022/10/06 12:42:37;;;;;;;;;;;;;;;23.04;30.04;101959.13;5055773;28;20446;-88
2022/10/06 12:45:05;;;;;;;;;;;;;;;22.74;30.09;101960.38;5052771;28;19917;-89
2022/10/06 12:47:36;;;;;;;;;;;;;;;23.04;29.41;101956.38;5053740;28;19917;-87
2022/10/06 12:50:07;;;;;;;;;;;;;;;22.99;31.70;101961.66;5055342;28;19916;-88
2022/10/06 12:52:35;;;;;;;;;;;;;;;22.41;31.67;101949.41;5061681;28;19939;-87
2022/10/06 12:55:06;;;;;;;;;;;;;;;21.82;32.63;101947.28;5059963;28;19928;-89
2022/10/06 12:57:43;;;;;;;;;;;;;;;22.08;33.15;101954.78;5068575;28;19924;-86